Terminal Aerodrome Forecast
Issued by NWS

Home | Current Version | Previous Version | Text Only | Print | Product List | Glossary On
Versions: 1 2 3 4 5 6 7 8 9 10 11 12 13 14 15 16 17 18 19 20 21 22 23 24 25 26 27 28 29 30 31
000
FTUS42 KCAE 180400 AAB
TAFCUB
TAF AMD
KCUB 180410Z 1804/1824 VRB04KT P6SM SCT030 BKN050
     FM180800 VRB03KT 4SM BR SCT007
     FM181100 VRB03KT 3SM BR BKN007
     FM181500 06005KT P6SM BKN020
     FM181900 08005KT P6SM SCT050=

USA.gov is the U.S. government's official web portal to all federal, state and local government web resources and services.